< < Back
Terminal Aerodrome Forecast


Current Version              Previous Versions:   1  2  3  4  5  6  7  8  9  

Terminal Aerodrome Forecast

257
FTUS42 KJAX 042326
TAFSSI
TAF
KSSI 042326Z 0500/0524 VRB03KT P6SM FEW040 BKN250
     FM051300 06008KT P6SM VCSH SCT020 BKN040
     FM051800 08010KT P6SM VCTS BKN040CB BKN250=

Latest METAR

422
SAUS70 KWBC 051200 RRK
MTRSSI
METAR KSSI 051153Z AUTO 03006KT 7SM SCT014 24/23 A3002 RMK AO2 LTG DSNT
E SLP165 T02390233 10244 20233 53010


USA.gov is the U.S. government's official web portal to all federal, state and local government web resources and services.